sensor_id;sensor_type;location;lat;lon;timestamp;temperature;humidity
20446;DHT22;10382;49.140;9.234;2022-08-19T00:00:33;24.40;99.90
20446;DHT22;10382;49.140;9.234;2022-08-19T00:02:59;24.50;99.90
20446;DHT22;10382;49.140;9.234;2022-08-19T00:05:26;24.50;99.90
20446;DHT22;10382;49.140;9.234;2022-08-19T00:07:53;24.50;99.90
20446;DHT22;10382;49.140;9.234;2022-08-19T00:10:21;24.50;99.90
20446;DHT22;10382;49.140;9.234;2022-08-19T00:12:49;24.50;99.90
20446;DHT22;10382;49.140;9.234;2022-08-19T00:15:18;24.50;99.90
20446;DHT22;10382;49.140;9.234;2022-08-19T00:17:46;24.40;99.90
20446;DHT22;10382;49.140;9.234;2022-08-19T00:20:15;24.40;99.90
20446;DHT22;10382;49.140;9.234;2022-08-19T00:22:44;24.30;99.90
20446;DHT22;10382;49.140;9.234;2022-08-19T00:25:11;24.30;99.90
20446;DHT22;10382;49.140;9.234;2022-08-19T00:27:40;24.30;99.90
20446;DHT22;10382;49.140;9.234;2022-08-19T00:30:08;24.30;99.90
20446;DHT22;10382;49.140;9.234;2022-08-19T00:32:36;24.30;99.90
20446;DHT22;10382;49.140;9.234;2022-08-19T00:35:03;24.20;99.90
20446;DHT22;10382;49.140;9.234;2022-08-19T00:37:30;24.20;99.90
20446;DHT22;10382;49.140;9.234;2022-08-19T00:39:58;24.20;99.90
20446;DHT22;10382;49.140;9.234;2022-08-19T00:42:25;24.20;99.90
20446;DHT22;10382;49.140;9.234;2022-08-19T00:44:55;24.20;99.90
20446;DHT22;10382;49.140;9.234;2022-08-19T00:47:22;24.20;99.90
20446;DHT22;10382;49.140;9.234;2022-08-19T00:49:51;24.20;99.90
20446;DHT22;10382;49.140;9.234;2022-08-19T00:52:22;24.20;99.90
20446;DHT22;10382;49.140;9.234;2022-08-19T00:54:51;24.10;99.90
20446;DHT22;10382;49.140;9.234;2022-08-19T00:57:22;24.20;99.90
20446;DHT22;10382;49.140;9.234;2022-08-19T00:59:53;24.20;99.90
20446;DHT22;10382;49.140;9.234;2022-08-19T01:02:23;24.20;99.90
20446;DHT22;10382;49.140;9.234;2022-08-19T01:04:50;24.20;99.90
20446;DHT22;10382;49.140;9.234;2022-08-19T01:07:17;24.20;99.90
20446;DHT22;10382;49.140;9.234;2022-08-19T01:09:44;24.10;99.90
20446;DHT22;10382;49.140;9.234;2022-08-19T01:12:11;24.10;99.90
20446;DHT22;10382;49.140;9.234;2022-08-19T01:14:39;23.90;99.90
20446;DHT22;10382;49.140;9.234;2022-08-19T01:17:07;23.90;99.90
20446;DHT22;10382;49.140;9.234;2022-08-19T01:19:39;23.90;99.90
20446;DHT22;10382;49.140;9.234;2022-08-19T01:22:12;23.80;99.90
20446;DHT22;10382;49.140;9.234;2022-08-19T01:24:41;23.80;99.90
20446;DHT22;10382;49.140;9.234;2022-08-19T01:27:08;23.80;99.90
20446;DHT22;10382;49.140;9.234;2022-08-19T01:29:40;23.70;99.90
20446;DHT22;10382;49.140;9.234;2022-08-19T01:32:07;23.60;99.90
20446;DHT22;10382;49.140;9.234;2022-08-19T01:34:35;23.50;99.90
20446;DHT22;10382;49.140;9.234;2022-08-19T01:37:06;23.50;99.90
20446;DHT22;10382;49.140;9.234;2022-08-19T01:39:37;23.50;99.90
20446;DHT22;10382;49.140;9.234;2022-08-19T01:42:06;23.50;99.90
20446;DHT22;10382;49.140;9.234;2022-08-19T01:44:35;23.50;99.90
20446;DHT22;10382;49.140;9.234;2022-08-19T01:47:03;23.50;99.90
20446;DHT22;10382;49.140;9.234;2022-08-19T01:49:30;23.50;99.90
20446;DHT22;10382;49.140;9.234;2022-08-19T01:52:00;23.50;99.90
20446;DHT22;10382;49.140;9.234;2022-08-19T01:54:27;23.50;99.90
20446;DHT22;10382;49.140;9.234;2022-08-19T01:56:59;23.50;99.90
20446;DHT22;10382;49.140;9.234;2022-08-19T01:59:28;23.50;99.90
20446;DHT22;10382;49.140;9.234;2022-08-19T02:01:56;23.60;99.90
20446;DHT22;10382;49.140;9.234;2022-08-19T02:04:23;23.60;99.90
20446;DHT22;10382;49.140;9.234;2022-08-19T02:06:51;23.60;99.90
20446;DHT22;10382;49.140;9.234;2022-08-19T02:09:18;23.60;99.90
20446;DHT22;10382;49.140;9.234;2022-08-19T02:11:45;23.60;99.90
20446;DHT22;10382;49.140;9.234;2022-08-19T02:14:11;23.70;99.90
20446;DHT22;10382;49.140;9.234;2022-08-19T02:16:40;23.80;99.90
20446;DHT22;10382;49.140;9.234;2022-08-19T02:19:07;23.80;99.90
20446;DHT22;10382;49.140;9.234;2022-08-19T02:21:34;23.70;99.90
20446;DHT22;10382;49.140;9.234;2022-08-19T02:24:02;23.70;99.90
20446;DHT22;10382;49.140;9.234;2022-08-19T02:26:29;23.60;99.90
20446;DHT22;10382;49.140;9.234;2022-08-19T02:28:56;23.60;99.90
20446;DHT22;10382;49.140;9.234;2022-08-19T02:31:25;23.50;99.90
20446;DHT22;10382;49.140;9.234;2022-08-19T02:33:55;23.40;99.90
20446;DHT22;10382;49.140;9.234;2022-08-19T02:36:23;23.30;99.90
20446;DHT22;10382;49.140;9.234;2022-08-19T02:38:50;23.20;99.90
20446;DHT22;10382;49.140;9.234;2022-08-19T02:41:21;23.20;99.90
20446;DHT22;10382;49.140;9.234;2022-08-19T02:43:48;23.10;99.90
20446;DHT22;10382;49.140;9.234;2022-08-19T02:46:16;23.10;99.90
20446;DHT22;10382;49.140;9.234;2022-08-19T02:48:47;23.10;99.90
20446;DHT22;10382;49.140;9.234;2022-08-19T02:51:18;23.10;99.90
20446;DHT22;10382;49.140;9.234;2022-08-19T02:53:46;23.10;99.90
20446;DHT22;10382;49.140;9.234;2022-08-19T02:56:13;23.10;99.90
20446;DHT22;10382;49.140;9.234;2022-08-19T02:58:40;23.10;99.90
20446;DHT22;10382;49.140;9.234;2022-08-19T03:01:08;23.10;99.90
20446;DHT22;10382;49.140;9.234;2022-08-19T03:03:35;23.20;99.90
20446;DHT22;10382;49.140;9.234;2022-08-19T03:06:05;23.20;99.90
20446;DHT22;10382;49.140;9.234;2022-08-19T03:08:34;23.10;99.90
20446;DHT22;10382;49.140;9.234;2022-08-19T03:11:01;23.10;99.90
20446;DHT22;10382;49.140;9.234;2022-08-19T03:13:28;23.10;99.90
20446;DHT22;10382;49.140;9.234;2022-08-19T03:15:55;23.10;99.90
20446;DHT22;10382;49.140;9.234;2022-08-19T03:18:22;23.20;99.90
20446;DHT22;10382;49.140;9.234;2022-08-19T03:20:51;23.20;99.90
20446;DHT22;10382;49.140;9.234;2022-08-19T03:23:20;23.20;99.90
20446;DHT22;10382;49.140;9.234;2022-08-19T03:25:51;23.20;99.90
20446;DHT22;10382;49.140;9.234;2022-08-19T03:28:20;23.20;99.90
20446;DHT22;10382;49.140;9.234;2022-08-19T03:30:57;23.20;99.90
20446;DHT22;10382;49.140;9.234;2022-08-19T03:33:26;23.30;99.90
20446;DHT22;10382;49.140;9.234;2022-08-19T03:38:28;23.30;99.90
20446;DHT22;10382;49.140;9.234;2022-08-19T03:40:56;23.20;99.90
20446;DHT22;10382;49.140;9.234;2022-08-19T03:43:23;23.20;99.90
20446;DHT22;10382;49.140;9.234;2022-08-19T03:46:00;23.20;99.90
20446;DHT22;10382;49.140;9.234;2022-08-19T03:48:28;23.20;99.90
20446;DHT22;10382;49.140;9.234;2022-08-19T03:50:56;23.20;99.90
20446;DHT22;10382;49.140;9.234;2022-08-19T03:53:24;23.10;99.90
20446;DHT22;10382;49.140;9.234;2022-08-19T03:55:53;23.20;99.90
20446;DHT22;10382;49.140;9.234;2022-08-19T03:58:21;23.10;99.90
20446;DHT22;10382;49.140;9.234;2022-08-19T04:00:48;23.10;99.90
20446;DHT22;10382;49.140;9.234;2022-08-19T04:03:15;23.10;99.90
20446;DHT22;10382;49.140;9.234;2022-08-19T04:05:44;23.10;99.90
20446;DHT22;10382;49.140;9.234;2022-08-19T04:08:12;23.00;99.90
20446;DHT22;10382;49.140;9.234;2022-08-19T04:10:44;23.00;99.90
20446;DHT22;10382;49.140;9.234;2022-08-19T04:13:11;23.00;99.90
20446;DHT22;10382;49.140;9.234;2022-08-19T04:15:41;23.00;99.90
20446;DHT22;10382;49.140;9.234;2022-08-19T04:18:08;23.00;99.90
20446;DHT22;10382;49.140;9.234;2022-08-19T04:20:40;23.10;99.90
20446;DHT22;10382;49.140;9.234;2022-08-19T04:23:07;23.10;99.90
20446;DHT22;10382;49.140;9.234;2022-08-19T04:25:38;23.10;99.90
20446;DHT22;10382;49.140;9.234;2022-08-19T04:28:06;23.00;99.90
20446;DHT22;10382;49.140;9.234;2022-08-19T04:30:41;23.10;99.90
20446;DHT22;10382;49.140;9.234;2022-08-19T04:33:09;23.10;99.90
20446;DHT22;10382;49.140;9.234;2022-08-19T04:35:38;23.00;99.90
20446;DHT22;10382;49.140;9.234;2022-08-19T04:38:05;23.00;99.90
20446;DHT22;10382;49.140;9.234;2022-08-19T04:40:33;22.90;99.90
20446;DHT22;10382;49.140;9.234;2022-08-19T04:43:14;23.00;99.90
20446;DHT22;10382;49.140;9.234;2022-08-19T04:45:42;22.90;99.90
20446;DHT22;10382;49.140;9.234;2022-08-19T04:48:10;22.80;99.90
20446;DHT22;10382;49.140;9.234;2022-08-19T04:50:40;22.80;99.90
20446;DHT22;10382;49.140;9.234;2022-08-19T04:53:07;22.70;99.90
20446;DHT22;10382;49.140;9.234;2022-08-19T04:55:37;22.70;99.90
20446;DHT22;10382;49.140;9.234;2022-08-19T04:58:04;22.70;99.90
20446;DHT22;10382;49.140;9.234;2022-08-19T05:00:32;22.70;99.90
20446;DHT22;10382;49.140;9.234;2022-08-19T05:03:00;22.70;99.90
20446;DHT22;10382;49.140;9.234;2022-08-19T05:05:27;22.70;99.90
20446;DHT22;10382;49.140;9.234;2022-08-19T05:07:54;22.60;99.90
20446;DHT22;10382;49.140;9.234;2022-08-19T05:10:21;22.60;99.90
20446;DHT22;10382;49.140;9.234;2022-08-19T05:12:48;22.60;99.90
20446;DHT22;10382;49.140;9.234;2022-08-19T05:15:15;22.50;99.90
20446;DHT22;10382;49.140;9.234;2022-08-19T05:17:42;22.50;99.90
20446;DHT22;10382;49.140;9.234;2022-08-19T05:20:30;22.50;99.90
20446;DHT22;10382;49.140;9.234;2022-08-19T05:23:14;22.50;99.90
20446;DHT22;10382;49.140;9.234;2022-08-19T05:25:42;22.40;99.90
20446;DHT22;10382;49.140;9.234;2022-08-19T05:28:10;22.40;99.90
20446;DHT22;10382;49.140;9.234;2022-08-19T05:30:36;22.40;99.90
20446;DHT22;10382;49.140;9.234;2022-08-19T05:33:03;22.50;99.90
20446;DHT22;10382;49.140;9.234;2022-08-19T05:35:32;22.60;99.90
20446;DHT22;10382;49.140;9.234;2022-08-19T05:37:58;22.70;99.90
20446;DHT22;10382;49.140;9.234;2022-08-19T05:40:25;22.80;99.90
20446;DHT22;10382;49.140;9.234;2022-08-19T05:42:52;22.80;99.90
20446;DHT22;10382;49.140;9.234;2022-08-19T05:45:19;22.90;99.90
20446;DHT22;10382;49.140;9.234;2022-08-19T05:47:47;23.00;99.90
20446;DHT22;10382;49.140;9.234;2022-08-19T05:50:14;23.10;99.90
20446;DHT22;10382;49.140;9.234;2022-08-19T05:52:44;23.10;99.90
20446;DHT22;10382;49.140;9.234;2022-08-19T05:55:11;23.10;99.90
20446;DHT22;10382;49.140;9.234;2022-08-19T05:57:39;23.10;99.90
20446;DHT22;10382;49.140;9.234;2022-08-19T06:00:07;23.10;99.90
20446;DHT22;10382;49.140;9.234;2022-08-19T06:02:36;22.90;99.90
20446;DHT22;10382;49.140;9.234;2022-08-19T06:05:04;22.90;99.90
20446;DHT22;10382;49.140;9.234;2022-08-19T06:07:34;22.90;99.90
20446;DHT22;10382;49.140;9.234;2022-08-19T06:10:03;22.80;99.90
20446;DHT22;10382;49.140;9.234;2022-08-19T06:12:30;22.80;99.90
20446;DHT22;10382;49.140;9.234;2022-08-19T06:14:58;22.80;99.90
20446;DHT22;10382;49.140;9.234;2022-08-19T06:17:25;22.80;99.90
20446;DHT22;10382;49.140;9.234;2022-08-19T06:19:52;22.80;99.90
20446;DHT22;10382;49.140;9.234;2022-08-19T06:22:19;22.80;99.90
20446;DHT22;10382;49.140;9.234;2022-08-19T06:24:46;22.90;99.90
20446;DHT22;10382;49.140;9.234;2022-08-19T06:27:14;22.90;99.90
20446;DHT22;10382;49.140;9.234;2022-08-19T06:29:41;22.90;99.90
20446;DHT22;10382;49.140;9.234;2022-08-19T06:32:09;22.90;99.90
20446;DHT22;10382;49.140;9.234;2022-08-19T06:34:36;23.00;99.90
20446;DHT22;10382;49.140;9.234;2022-08-19T06:37:03;23.10;99.90
20446;DHT22;10382;49.140;9.234;2022-08-19T06:39:34;23.10;99.90
20446;DHT22;10382;49.140;9.234;2022-08-19T06:42:03;23.10;99.90
20446;DHT22;10382;49.140;9.234;2022-08-19T06:44:35;23.20;99.90
20446;DHT22;10382;49.140;9.234;2022-08-19T06:47:04;23.20;99.90
20446;DHT22;10382;49.140;9.234;2022-08-19T06:49:32;23.30;99.90
20446;DHT22;10382;49.140;9.234;2022-08-19T06:51:59;23.40;99.90
20446;DHT22;10382;49.140;9.234;2022-08-19T06:54:27;23.40;99.90
20446;DHT22;10382;49.140;9.234;2022-08-19T06:56:55;23.40;99.90
20446;DHT22;10382;49.140;9.234;2022-08-19T06:59:23;23.50;99.90
20446;DHT22;10382;49.140;9.234;2022-08-19T07:01:55;23.60;99.90
20446;DHT22;10382;49.140;9.234;2022-08-19T07:04:24;23.70;99.90
20446;DHT22;10382;49.140;9.234;2022-08-19T07:06:57;23.80;99.90
20446;DHT22;10382;49.140;9.234;2022-08-19T07:09:26;23.80;99.90
20446;DHT22;10382;49.140;9.234;2022-08-19T07:11:54;23.90;99.90
20446;DHT22;10382;49.140;9.234;2022-08-19T07:14:23;23.90;99.90
20446;DHT22;10382;49.140;9.234;2022-08-19T07:16:52;23.90;99.90
20446;DHT22;10382;49.140;9.234;2022-08-19T07:19:23;23.90;99.90
20446;DHT22;10382;49.140;9.234;2022-08-19T07:21:52;23.90;99.90
20446;DHT22;10382;49.140;9.234;2022-08-19T07:24:19;24.00;99.90
20446;DHT22;10382;49.140;9.234;2022-08-19T07:26:50;24.00;99.90
20446;DHT22;10382;49.140;9.234;2022-08-19T07:29:19;24.10;99.90
20446;DHT22;10382;49.140;9.234;2022-08-19T07:31:49;24.20;99.90
20446;DHT22;10382;49.140;9.234;2022-08-19T07:34:17;24.30;99.90
20446;DHT22;10382;49.140;9.234;2022-08-19T07:36:45;24.30;99.90
20446;DHT22;10382;49.140;9.234;2022-08-19T07:39:15;24.40;99.90
20446;DHT22;10382;49.140;9.234;2022-08-19T07:41:42;24.60;99.90
20446;DHT22;10382;49.140;9.234;2022-08-19T07:44:10;24.70;99.90
20446;DHT22;10382;49.140;9.234;2022-08-19T07:46:40;24.70;99.90
20446;DHT22;10382;49.140;9.234;2022-08-19T07:49:10;24.80;99.90
20446;DHT22;10382;49.140;9.234;2022-08-19T07:51:47;24.90;99.90
20446;DHT22;10382;49.140;9.234;2022-08-19T07:54:15;25.00;99.90
20446;DHT22;10382;49.140;9.234;2022-08-19T07:56:41;25.10;99.90
20446;DHT22;10382;49.140;9.234;2022-08-19T07:59:09;25.10;99.90
20446;DHT22;10382;49.140;9.234;2022-08-19T08:01:36;25.10;99.90
20446;DHT22;10382;49.140;9.234;2022-08-19T08:04:06;25.10;99.90
20446;DHT22;10382;49.140;9.234;2022-08-19T08:06:52;25.10;99.90
20446;DHT22;10382;49.140;9.234;2022-08-19T08:09:39;25.10;99.90
20446;DHT22;10382;49.140;9.234;2022-08-19T08:12:10;25.10;99.90
20446;DHT22;10382;49.140;9.234;2022-08-19T08:14:40;25.10;99.90
20446;DHT22;10382;49.140;9.234;2022-08-19T08:17:08;25.10;99.90
20446;DHT22;10382;49.140;9.234;2022-08-19T08:19:35;25.10;99.90
20446;DHT22;10382;49.140;9.234;2022-08-19T08:22:04;25.20;99.90
20446;DHT22;10382;49.140;9.234;2022-08-19T08:24:33;25.10;99.90
20446;DHT22;10382;49.140;9.234;2022-08-19T08:27:01;25.20;99.90
20446;DHT22;10382;49.140;9.234;2022-08-19T08:29:30;25.20;99.90
20446;DHT22;10382;49.140;9.234;2022-08-19T08:31:58;25.10;99.90
20446;DHT22;10382;49.140;9.234;2022-08-19T08:34:25;25.00;99.90
20446;DHT22;10382;49.140;9.234;2022-08-19T08:36:52;25.00;99.90
20446;DHT22;10382;49.140;9.234;2022-08-19T08:39:21;25.00;99.90
20446;DHT22;10382;49.140;9.234;2022-08-19T08:41:53;24.90;99.90
20446;DHT22;10382;49.140;9.234;2022-08-19T08:44:31;25.00;99.90
20446;DHT22;10382;49.140;9.234;2022-08-19T08:47:12;25.10;99.90
20446;DHT22;10382;49.140;9.234;2022-08-19T08:49:43;25.20;99.90
20446;DHT22;10382;49.140;9.234;2022-08-19T08:52:20;25.20;99.90
20446;DHT22;10382;49.140;9.234;2022-08-19T08:54:52;25.10;99.90
20446;DHT22;10382;49.140;9.234;2022-08-19T08:57:25;25.20;99.90
20446;DHT22;10382;49.140;9.234;2022-08-19T08:59:54;25.30;99.90
20446;DHT22;10382;49.140;9.234;2022-08-19T09:02:24;25.40;99.90
20446;DHT22;10382;49.140;9.234;2022-08-19T09:04:51;25.50;99.90
20446;DHT22;10382;49.140;9.234;2022-08-19T09:07:26;25.70;99.90
20446;DHT22;10382;49.140;9.234;2022-08-19T09:10:08;25.80;99.90
20446;DHT22;10382;49.140;9.234;2022-08-19T09:12:47;25.90;99.90
20446;DHT22;10382;49.140;9.234;2022-08-19T09:15:20;26.10;99.90
20446;DHT22;10382;49.140;9.234;2022-08-19T09:17:48;26.30;99.90
20446;DHT22;10382;49.140;9.234;2022-08-19T09:20:19;26.50;99.90
20446;DHT22;10382;49.140;9.234;2022-08-19T09:22:46;26.60;99.90
20446;DHT22;10382;49.140;9.234;2022-08-19T09:25:18;26.80;99.90
20446;DHT22;10382;49.140;9.234;2022-08-19T09:27:46;26.90;99.90
20446;DHT22;10382;49.140;9.234;2022-08-19T09:30:16;27.10;99.90
20446;DHT22;10382;49.140;9.234;2022-08-19T09:32:44;27.20;99.90
20446;DHT22;10382;49.140;9.234;2022-08-19T09:35:12;27.20;99.90
20446;DHT22;10382;49.140;9.234;2022-08-19T09:37:39;27.20;99.90
20446;DHT22;10382;49.140;9.234;2022-08-19T09:40:09;27.20;99.90
20446;DHT22;10382;49.140;9.234;2022-08-19T09:42:38;27.10;99.90
20446;DHT22;10382;49.140;9.234;2022-08-19T09:45:06;27.00;99.90
20446;DHT22;10382;49.140;9.234;2022-08-19T09:47:33;26.80;99.90
20446;DHT22;10382;49.140;9.234;2022-08-19T09:50:04;26.70;99.90
20446;DHT22;10382;49.140;9.234;2022-08-19T09:52:32;26.50;99.90
20446;DHT22;10382;49.140;9.234;2022-08-19T09:55:02;26.30;99.90
20446;DHT22;10382;49.140;9.234;2022-08-19T09:57:29;26.20;99.90
20446;DHT22;10382;49.140;9.234;2022-08-19T09:59:57;26.10;99.90
20446;DHT22;10382;49.140;9.234;2022-08-19T10:02:24;26.10;99.90
20446;DHT22;10382;49.140;9.234;2022-08-19T10:04:51;26.10;99.90
20446;DHT22;10382;49.140;9.234;2022-08-19T10:07:36;26.20;99.90
20446;DHT22;10382;49.140;9.234;2022-08-19T10:10:04;26.40;99.90
20446;DHT22;10382;49.140;9.234;2022-08-19T10:12:33;26.40;99.90
20446;DHT22;10382;49.140;9.234;2022-08-19T10:15:02;26.40;99.90
20446;DHT22;10382;49.140;9.234;2022-08-19T10:17:29;26.30;99.90
20446;DHT22;10382;49.140;9.234;2022-08-19T10:19:58;26.40;99.90
20446;DHT22;10382;49.140;9.234;2022-08-19T10:22:25;26.50;99.90
20446;DHT22;10382;49.140;9.234;2022-08-19T10:24:53;26.60;99.90
20446;DHT22;10382;49.140;9.234;2022-08-19T10:27:20;26.60;99.90
20446;DHT22;10382;49.140;9.234;2022-08-19T10:29:47;26.70;99.90
20446;DHT22;10382;49.140;9.234;2022-08-19T10:32:18;26.70;99.90
20446;DHT22;10382;49.140;9.234;2022-08-19T10:34:50;26.70;99.90
20446;DHT22;10382;49.140;9.234;2022-08-19T10:37:17;26.90;99.90
20446;DHT22;10382;49.140;9.234;2022-08-19T10:39:46;27.00;99.90
20446;DHT22;10382;49.140;9.234;2022-08-19T10:42:13;27.30;99.90
20446;DHT22;10382;49.140;9.234;2022-08-19T10:44:42;27.40;99.90
20446;DHT22;10382;49.140;9.234;2022-08-19T10:47:09;27.70;99.90
20446;DHT22;10382;49.140;9.234;2022-08-19T10:49:38;27.90;99.90
20446;DHT22;10382;49.140;9.234;2022-08-19T10:52:25;28.10;99.90
20446;DHT22;10382;49.140;9.234;2022-08-19T10:55:00;28.30;99.90
20446;DHT22;10382;49.140;9.234;2022-08-19T10:57:45;28.40;99.90
20446;DHT22;10382;49.140;9.234;2022-08-19T11:00:12;28.60;99.90
20446;DHT22;10382;49.140;9.234;2022-08-19T11:02:40;28.80;99.90
20446;DHT22;10382;49.140;9.234;2022-08-19T11:05:09;28.90;99.90
20446;DHT22;10382;49.140;9.234;2022-08-19T11:07:37;28.70;99.90
20446;DHT22;10382;49.140;9.234;2022-08-19T11:10:05;28.30;99.90
20446;DHT22;10382;49.140;9.234;2022-08-19T11:12:32;28.20;99.90
20446;DHT22;10382;49.140;9.234;2022-08-19T11:14:59;28.10;99.90
20446;DHT22;10382;49.140;9.234;2022-08-19T11:17:27;28.10;99.90
20446;DHT22;10382;49.140;9.234;2022-08-19T11:19:57;28.00;99.90
20446;DHT22;10382;49.140;9.234;2022-08-19T11:22:28;27.90;99.90
20446;DHT22;10382;49.140;9.234;2022-08-19T11:24:55;27.90;99.90
20446;DHT22;10382;49.140;9.234;2022-08-19T11:27:22;27.90;99.90
20446;DHT22;10382;49.140;9.234;2022-08-19T11:29:49;27.90;99.90
20446;DHT22;10382;49.140;9.234;2022-08-19T11:32:16;28.00;99.90
20446;DHT22;10382;49.140;9.234;2022-08-19T11:34:43;28.10;99.90
20446;DHT22;10382;49.140;9.234;2022-08-19T11:37:10;28.10;99.90
20446;DHT22;10382;49.140;9.234;2022-08-19T11:39:38;28.00;99.90
20446;DHT22;10382;49.140;9.234;2022-08-19T11:42:06;28.00;99.90
20446;DHT22;10382;49.140;9.234;2022-08-19T11:44:53;28.00;99.90
20446;DHT22;10382;49.140;9.234;2022-08-19T11:47:21;27.90;99.90
20446;DHT22;10382;49.140;9.234;2022-08-19T11:49:48;27.90;99.90
20446;DHT22;10382;49.140;9.234;2022-08-19T11:52:15;28.00;99.90
20446;DHT22;10382;49.140;9.234;2022-08-19T11:54:43;28.00;99.90
20446;DHT22;10382;49.140;9.234;2022-08-19T11:57:10;28.00;99.90
20446;DHT22;10382;49.140;9.234;2022-08-19T11:59:37;28.10;99.90
20446;DHT22;10382;49.140;9.234;2022-08-19T12:02:04;28.20;99.90
20446;DHT22;10382;49.140;9.234;2022-08-19T12:04:30;28.30;99.90
20446;DHT22;10382;49.140;9.234;2022-08-19T12:06:57;28.50;99.90
20446;DHT22;10382;49.140;9.234;2022-08-19T12:09:24;28.70;99.90
20446;DHT22;10382;49.140;9.234;2022-08-19T12:11:52;29.00;99.90
20446;DHT22;10382;49.140;9.234;2022-08-19T12:14:19;29.30;99.90
20446;DHT22;10382;49.140;9.234;2022-08-19T12:16:47;29.50;99.90
20446;DHT22;10382;49.140;9.234;2022-08-19T12:19:13;29.60;99.90
20446;DHT22;10382;49.140;9.234;2022-08-19T12:21:41;29.70;99.90
20446;DHT22;10382;49.140;9.234;2022-08-19T12:24:07;29.70;99.90
20446;DHT22;10382;49.140;9.234;2022-08-19T12:26:35;29.80;99.90
20446;DHT22;10382;49.140;9.234;2022-08-19T12:29:03;29.70;99.90
20446;DHT22;10382;49.140;9.234;2022-08-19T12:31:30;29.80;99.90
20446;DHT22;10382;49.140;9.234;2022-08-19T12:33:58;29.90;99.90
20446;DHT22;10382;49.140;9.234;2022-08-19T12:36:28;30.10;99.90
20446;DHT22;10382;49.140;9.234;2022-08-19T12:38:57;30.40;99.90
20446;DHT22;10382;49.140;9.234;2022-08-19T12:41:25;30.50;99.90
20446;DHT22;10382;49.140;9.234;2022-08-19T12:43:52;30.70;99.90
20446;DHT22;10382;49.140;9.234;2022-08-19T12:46:21;30.80;99.90
20446;DHT22;10382;49.140;9.234;2022-08-19T12:48:48;31.00;99.90
20446;DHT22;10382;49.140;9.234;2022-08-19T12:51:17;30.90;99.90
20446;DHT22;10382;49.140;9.234;2022-08-19T12:53:46;30.70;99.90
20446;DHT22;10382;49.140;9.234;2022-08-19T12:56:13;30.40;99.90
20446;DHT22;10382;49.140;9.234;2022-08-19T12:58:41;30.10;99.90
20446;DHT22;10382;49.140;9.234;2022-08-19T13:01:11;29.70;99.90
20446;DHT22;10382;49.140;9.234;2022-08-19T13:03:39;29.20;99.90
20446;DHT22;10382;49.140;9.234;2022-08-19T13:06:07;29.20;99.90
20446;DHT22;10382;49.140;9.234;2022-08-19T13:08:34;29.10;99.90
20446;DHT22;10382;49.140;9.234;2022-08-19T13:11:10;29.10;99.90
20446;DHT22;10382;49.140;9.234;2022-08-19T13:13:38;29.10;99.90
20446;DHT22;10382;49.140;9.234;2022-08-19T13:16:07;29.20;99.90
20446;DHT22;10382;49.140;9.234;2022-08-19T13:18:35;29.20;99.90
20446;DHT22;10382;49.140;9.234;2022-08-19T13:21:04;29.40;99.90
20446;DHT22;10382;49.140;9.234;2022-08-19T13:23:32;29.50;99.90
20446;DHT22;10382;49.140;9.234;2022-08-19T13:26:00;29.70;99.90
20446;DHT22;10382;49.140;9.234;2022-08-19T13:28:28;29.70;99.90
20446;DHT22;10382;49.140;9.234;2022-08-19T13:31:16;29.60;99.90
20446;DHT22;10382;49.140;9.234;2022-08-19T13:34:09;29.50;99.90
20446;DHT22;10382;49.140;9.234;2022-08-19T13:36:38;29.40;99.90
20446;DHT22;10382;49.140;9.234;2022-08-19T13:39:06;29.20;99.90
20446;DHT22;10382;49.140;9.234;2022-08-19T13:41:34;29.00;99.90
20446;DHT22;10382;49.140;9.234;2022-08-19T13:44:02;28.80;99.90
20446;DHT22;10382;49.140;9.234;2022-08-19T13:46:29;28.60;99.90
20446;DHT22;10382;49.140;9.234;2022-08-19T13:48:56;28.40;99.90
20446;DHT22;10382;49.140;9.234;2022-08-19T13:51:23;28.30;99.90
20446;DHT22;10382;49.140;9.234;2022-08-19T13:53:52;28.40;99.90
20446;DHT22;10382;49.140;9.234;2022-08-19T13:56:19;28.30;99.90
20446;DHT22;10382;49.140;9.234;2022-08-19T13:58:46;28.40;99.90
20446;DHT22;10382;49.140;9.234;2022-08-19T14:01:18;28.40;99.90
20446;DHT22;10382;49.140;9.234;2022-08-19T14:03:45;28.40;99.90
20446;DHT22;10382;49.140;9.234;2022-08-19T14:06:12;28.40;99.90
20446;DHT22;10382;49.140;9.234;2022-08-19T14:08:39;28.40;99.90
20446;DHT22;10382;49.140;9.234;2022-08-19T14:11:09;28.40;99.90
20446;DHT22;10382;49.140;9.234;2022-08-19T14:13:36;28.30;99.90
20446;DHT22;10382;49.140;9.234;2022-08-19T14:16:07;28.30;99.90
20446;DHT22;10382;49.140;9.234;2022-08-19T14:18:34;28.30;99.90
20446;DHT22;10382;49.140;9.234;2022-08-19T14:21:01;28.20;99.90
20446;DHT22;10382;49.140;9.234;2022-08-19T14:23:30;28.00;99.90
20446;DHT22;10382;49.140;9.234;2022-08-19T14:26:04;27.80;99.90
20446;DHT22;10382;49.140;9.234;2022-08-19T14:28:32;27.60;99.90
20446;DHT22;10382;49.140;9.234;2022-08-19T14:30:59;27.20;99.90
20446;DHT22;10382;49.140;9.234;2022-08-19T14:33:26;27.00;99.90
20446;DHT22;10382;49.140;9.234;2022-08-19T14:35:53;26.70;99.90
20446;DHT22;10382;49.140;9.234;2022-08-19T14:38:20;26.40;99.90
20446;DHT22;10382;49.140;9.234;2022-08-19T14:40:47;26.20;99.90
20446;DHT22;10382;49.140;9.234;2022-08-19T14:43:14;26.00;99.90
20446;DHT22;10382;49.140;9.234;2022-08-19T14:45:44;25.80;99.90
20446;DHT22;10382;49.140;9.234;2022-08-19T14:48:11;25.80;99.90
20446;DHT22;10382;49.140;9.234;2022-08-19T14:50:38;25.70;99.90
20446;DHT22;10382;49.140;9.234;2022-08-19T14:53:08;25.60;99.90
20446;DHT22;10382;49.140;9.234;2022-08-19T14:55:35;25.50;99.90
20446;DHT22;10382;49.140;9.234;2022-08-19T14:58:02;25.50;99.90
20446;DHT22;10382;49.140;9.234;2022-08-19T15:00:29;25.50;99.90
20446;DHT22;10382;49.140;9.234;2022-08-19T15:02:57;25.40;99.90
20446;DHT22;10382;49.140;9.234;2022-08-19T15:05:24;25.40;99.90
20446;DHT22;10382;49.140;9.234;2022-08-19T15:07:52;25.30;99.90
20446;DHT22;10382;49.140;9.234;2022-08-19T15:10:20;25.30;99.90
20446;DHT22;10382;49.140;9.234;2022-08-19T15:12:49;25.20;99.90
20446;DHT22;10382;49.140;9.234;2022-08-19T15:15:16;25.20;99.90
20446;DHT22;10382;49.140;9.234;2022-08-19T15:17:44;25.40;99.90
20446;DHT22;10382;49.140;9.234;2022-08-19T15:20:19;25.50;99.90
20446;DHT22;10382;49.140;9.234;2022-08-19T15:22:46;25.60;99.90
20446;DHT22;10382;49.140;9.234;2022-08-19T15:25:16;25.80;99.90
20446;DHT22;10382;49.140;9.234;2022-08-19T15:27:44;25.90;99.90
20446;DHT22;10382;49.140;9.234;2022-08-19T15:30:11;26.00;99.90
20446;DHT22;10382;49.140;9.234;2022-08-19T15:32:39;26.00;99.90
20446;DHT22;10382;49.140;9.234;2022-08-19T15:35:07;26.10;99.90
20446;DHT22;10382;49.140;9.234;2022-08-19T15:37:35;26.20;99.90
20446;DHT22;10382;49.140;9.234;2022-08-19T15:40:02;26.10;99.90
20446;DHT22;10382;49.140;9.234;2022-08-19T15:42:29;26.20;99.90